Butler, PA

3:18 PM EST on January 21, 2017 (GMT -0500)
Butler

Weather History for KBTP - March, 2012

Change the Weather History Date:

Wednesday, March 7, 2012

  Actual Average Record
Temperature  
Mean Temperature 52 °F -  
Max Temperature 62 °F 39 °F 69 °F (2009)
Min Temperature 42 °F 23 °F -3 °F (1978)
Degree Days  
Heating Degree Days 13    
Growing Degree Days 2 (Base 50)    
Moisture  
Dew Point 25 °F    
Average Humidity 34    
Maximum Humidity 42    
Minimum Humidity 27    
Precipitation  
Precipitation 0.00 in - - ()
Sea Level Pressure  
Sea Level Pressure 30.32 in    
Wind  
Wind Speed 10 mph (SSW)    
Max Wind Speed 20 mph    
Max Gust Speed 29 mph    
Visibility 10 miles    
Events      
Averages and records for this station are not official NWS values.
T = Trace of Precipitation, MM = Missing Value Source: NWS Daily Summary

Daily Weather History Graph

Daily Weather History Graph

Search for Another Location

Airport or City:

Trip Planner

Search our weather history database for the weather conditions in past years. The results will help you decide how hot, cold, wet, or windy it might be!

Date:

Astronomy

Mar. 07, 2012 Rise Set
Actual Time 6:43 AM EST 6:18 PM EST
Civil Twilight 6:16 AM EST 6:45 PM EST
Nautical Twilight 5:44 AM EST 7:17 PM EST
Astronomical Twilight 5:12 AM EST 7:49 PM EST
Moon 5:53 PM EST (3/7) 5:53 AM EST (3/7)
Length of Visible Light 12h 29m
Length of Day
11h 34m
Waxing Gibbous, 99% of the Moon is Illuminated
Mar 7
Waxing Gibbous
Mar 8
Full
Mar 14
Last Quarter
Mar 22
New
Mar 30
First Quarter

Hourly Weather History & Observations

Time (EST) Temp. Windchill Dew Point Humidity Pressure Visibility Wind Dir Wind Speed Gust Speed Precip Events Conditions
12:15 AM 42.8 °F 40.1 °F 17.6 °F 36% 30.32 in 10.0 mi South 4.6 mph - N/A   Clear
12:35 AM 42.8 °F 38.6 °F 17.6 °F 36% 30.31 in 10.0 mi South 6.9 mph - N/A   Clear
12:55 AM 44.6 °F 40.2 °F 19.4 °F 37% 30.31 in 10.0 mi South 8.1 mph - N/A   Clear
1:15 AM 44.6 °F 40.7 °F 19.4 °F 37% 30.31 in 10.0 mi South 6.9 mph - N/A   Clear
1:55 AM 44.6 °F 40.2 °F 19.4 °F 37% 30.32 in 10.0 mi South 8.1 mph - N/A   Clear
2:15 AM 44.6 °F 40.7 °F 19.4 °F 37% 30.32 in 10.0 mi South 6.9 mph - N/A   Clear
2:35 AM 44.6 °F 40.7 °F 21.2 °F 39% 30.32 in 10.0 mi South 6.9 mph - N/A   Clear
2:55 AM 44.6 °F 40.7 °F 21.2 °F 39% 30.33 in 10.0 mi South 6.9 mph - N/A   Clear
3:15 AM 42.8 °F 37.5 °F 21.2 °F 42% 30.33 in 10.0 mi South 9.2 mph - N/A   Clear
3:35 AM 44.6 °F 40.7 °F 21.2 °F 39% 30.34 in 10.0 mi South 6.9 mph - N/A   Clear
3:55 AM 44.6 °F 40.2 °F 21.2 °F 39% 30.34 in 10.0 mi South 8.1 mph - N/A   Clear
4:15 AM 44.6 °F 39.7 °F 21.2 °F 39% 30.35 in 10.0 mi South 9.2 mph - N/A   Clear
4:55 AM 42.8 °F 37.5 °F 19.4 °F 39% 30.36 in 10.0 mi South 9.2 mph - N/A   Clear
5:15 AM 44.6 °F 40.2 °F 19.4 °F 37% 30.37 in 10.0 mi South 8.1 mph - N/A   Clear
5:35 AM 42.8 °F 37.5 °F 19.4 °F 39% 30.38 in 10.0 mi South 9.2 mph - N/A   Clear
5:55 AM 44.6 °F 39.2 °F 19.4 °F 37% 30.38 in 10.0 mi South 10.4 mph - N/A   Clear
6:15 AM 42.8 °F 37.5 °F 19.4 °F 39% 30.38 in 10.0 mi South 9.2 mph - N/A   Clear
6:35 AM 42.8 °F 38.0 °F 19.4 °F 39% 30.38 in 10.0 mi South 8.1 mph - N/A   Clear
6:55 AM 42.8 °F 39.3 °F 19.4 °F 39% 30.38 in 10.0 mi South 5.8 mph - N/A   Clear
7:15 AM 42.8 °F 38.0 °F 19.4 °F 39% 30.38 in 10.0 mi South 8.1 mph - N/A   Clear
7:35 AM 44.6 °F 40.2 °F 19.4 °F 37% 30.38 in 10.0 mi South 8.1 mph - N/A   Clear
7:55 AM 44.6 °F 39.7 °F 19.4 °F 37% 30.39 in 10.0 mi South 9.2 mph - N/A   Clear
8:15 AM 46.4 °F 41.5 °F 19.4 °F 34% 30.39 in 10.0 mi South 10.4 mph 18.4 mph N/A   Clear
8:35 AM 48.2 °F - 19.4 °F 32% 30.39 in 10.0 mi South 9.2 mph - N/A   Clear
8:55 AM 48.2 °F - 21.2 °F 34% 30.39 in 10.0 mi SSW 10.4 mph 16.1 mph N/A   Clear
9:15 AM 51.8 °F - 21.2 °F 30% 30.39 in 10.0 mi SSW 10.4 mph 19.6 mph N/A   Clear
9:35 AM 51.8 °F - 21.2 °F 30% 30.39 in 10.0 mi SSW 10.4 mph 18.4 mph N/A   Clear
9:55 AM 53.6 °F - 24.8 °F 33% 30.39 in 10.0 mi SW 16.1 mph 19.6 mph N/A   Clear
10:15 AM 55.4 °F - 26.6 °F 33% 30.38 in 10.0 mi SSW 13.8 mph 24.2 mph N/A   Clear
10:35 AM 57.2 °F - 26.6 °F 31% 30.38 in 10.0 mi SW 18.4 mph 25.3 mph N/A   Clear
10:55 AM 57.2 °F - 26.6 °F 31% 30.37 in 10.0 mi SW 19.6 mph 27.6 mph N/A   Clear
11:15 AM 57.2 °F - 28.4 °F 33% 30.36 in 10.0 mi SW 19.6 mph 27.6 mph N/A   Clear
11:35 AM 59.0 °F - 28.4 °F 31% 30.36 in 10.0 mi SW 16.1 mph 24.2 mph N/A   Clear
11:55 AM 60.8 °F - 28.4 °F 29% 30.35 in 10.0 mi SSW 13.8 mph 21.9 mph N/A   Clear
12:15 PM 60.8 °F - 30.2 °F 31% 30.34 in 10.0 mi SW 16.1 mph 27.6 mph N/A   Clear
12:35 PM 60.8 °F - 28.4 °F 29% 30.32 in 10.0 mi SSW 15.0 mph 28.8 mph N/A   Clear
12:55 PM 60.8 °F - 28.4 °F 29% 30.31 in 10.0 mi SW 13.8 mph 21.9 mph N/A   Clear
1:15 PM 62.6 °F - 30.2 °F 30% 30.29 in 10.0 mi SSW 15.0 mph 24.2 mph N/A   Clear
1:35 PM 62.6 °F - 28.4 °F 27% 30.28 in 10.0 mi SSW 17.3 mph 23.0 mph N/A   Clear
1:55 PM 62.6 °F - 30.2 °F 30% 30.28 in 10.0 mi SSW 13.8 mph 20.7 mph N/A   Clear
2:15 PM 62.6 °F - 28.4 °F 27% 30.27 in 10.0 mi SSW 19.6 mph 25.3 mph N/A   Clear
2:35 PM 62.6 °F - 30.2 °F 30% 30.26 in 10.0 mi SSW 13.8 mph 20.7 mph N/A   Clear
2:55 PM 62.6 °F - 30.2 °F 30% 30.25 in 10.0 mi SSW 12.7 mph 18.4 mph N/A   Clear
3:15 PM 62.6 °F - 30.2 °F 30% 30.24 in 10.0 mi South 15.0 mph 24.2 mph N/A   Clear
3:35 PM 62.6 °F - 30.2 °F 30% 30.25 in 10.0 mi SSW 15.0 mph 24.2 mph N/A   Clear
3:55 PM 62.6 °F - 30.2 °F 30% 30.24 in 10.0 mi SSW 18.4 mph 24.2 mph N/A   Clear
4:15 PM 62.6 °F - 30.2 °F 30% 30.23 in 10.0 mi South 16.1 mph 21.9 mph N/A   Clear
4:35 PM 62.6 °F - 32.0 °F 32% 30.23 in 10.0 mi SSW 16.1 mph 21.9 mph N/A   Clear
4:55 PM 62.6 °F - 32.0 °F 32% 30.22 in 10.0 mi SSW 15.0 mph 23.0 mph N/A   Clear
5:15 PM 62.6 °F - 32.0 °F 32% 30.22 in 10.0 mi SSW 12.7 mph 25.3 mph N/A   Clear
5:35 PM 62.6 °F - 32.0 °F 32% 30.22 in 10.0 mi SSW 11.5 mph 20.7 mph N/A   Clear
5:55 PM 60.8 °F - 33.8 °F 36% 30.21 in 10.0 mi South 10.4 mph - N/A   Clear
6:15 PM 60.8 °F - 33.8 °F 36% 30.21 in 10.0 mi South 6.9 mph - N/A   Clear
6:35 PM 59.0 °F - 33.8 °F 39% 30.21 in 10.0 mi South 6.9 mph - N/A   Clear
6:55 PM 59.0 °F - 33.8 °F 39% 30.21 in 10.0 mi South 5.8 mph - N/A   Clear
7:15 PM 57.2 °F - 33.8 °F 41% 30.20 in 10.0 mi South 8.1 mph - N/A   Clear
7:35 PM 57.2 °F - 33.8 °F 41% 30.20 in 10.0 mi South 8.1 mph - N/A   Clear
7:55 PM 57.2 °F - 33.8 °F 41% 30.20 in 10.0 mi South 9.2 mph - N/A   Clear
8:15 PM 57.2 °F - 33.8 °F 41% 30.20 in 10.0 mi South 6.9 mph - N/A   Clear
8:35 PM 57.2 °F - 33.8 °F 41% 30.20 in 10.0 mi South 8.1 mph - N/A   Clear
8:55 PM 55.4 °F - 33.8 °F 44% 30.20 in 10.0 mi SSE 5.8 mph - N/A   Clear
9:15 PM 55.4 °F - 33.8 °F 44% 30.19 in 10.0 mi South 8.1 mph - N/A   Clear
9:35 PM 57.2 °F - 32.0 °F 38% 30.19 in 10.0 mi South 8.1 mph - N/A   Clear
9:55 PM 57.2 °F - 32.0 °F 38% 30.19 in 10.0 mi South 9.2 mph - N/A   Clear
10:15 PM 57.2 °F - 32.0 °F 38% 30.19 in 10.0 mi South 9.2 mph - N/A   Clear
10:35 PM 55.4 °F - 32.0 °F 41% 30.19 in 10.0 mi South 8.1 mph - N/A   Clear
10:55 PM 55.4 °F - 30.2 °F 38% 30.19 in 10.0 mi SSW 6.9 mph - N/A   Clear
11:15 PM 55.4 °F - 30.2 °F 38% 30.19 in 10.0 mi SSW 6.9 mph - N/A   Clear
11:35 PM 55.4 °F - 30.2 °F 38% 30.20 in 10.0 mi SSW 6.9 mph - N/A   Clear